createdAt,value
2019-03-17T00:01:39.389Z,11.70
2019-03-17T00:04:07.785Z,13.65
2019-03-17T00:06:36.238Z,10.13
2019-03-17T00:09:06.352Z,19.77
2019-03-17T00:11:34.794Z,9.58
2019-03-17T00:14:03.220Z,8.73
2019-03-17T00:16:31.660Z,7.08
2019-03-17T00:19:00.115Z,6.47
2019-03-17T00:21:28.627Z,7.85
2019-03-17T00:23:57.049Z,5.10
2019-03-17T00:26:25.495Z,5.10
2019-03-17T00:28:53.914Z,7.30
2019-03-17T00:31:24.057Z,6.30
2019-03-17T00:33:52.510Z,6.72
2019-03-17T00:36:21.007Z,7.30
2019-03-17T00:38:49.422Z,8.43
2019-03-17T00:41:17.858Z,6.92
2019-03-17T00:43:46.296Z,7.10
2019-03-17T00:46:14.786Z,8.23
2019-03-17T00:48:43.341Z,5.33
2019-03-17T00:51:11.755Z,8.60
2019-03-17T00:53:40.201Z,6.65
2019-03-17T00:56:08.612Z,8.78
2019-03-17T00:58:37.058Z,5.67
2019-03-17T01:01:05.553Z,7.92
2019-03-17T01:03:33.990Z,9.45
2019-03-17T01:06:02.506Z,14.07
2019-03-17T01:08:30.955Z,9.60
2019-03-17T01:10:59.375Z,13.18
2019-03-17T01:13:27.834Z,10.45
2019-03-17T01:15:56.261Z,13.95
2019-03-17T01:18:24.712Z,14.70
2019-03-17T01:20:53.128Z,21.27
2019-03-17T01:23:21.586Z,16.32
2019-03-17T01:25:50.003Z,15.68
2019-03-17T01:28:18.450Z,16.80
2019-03-17T01:30:46.889Z,14.65
2019-03-17T01:33:15.343Z,11.10
2019-03-17T01:35:43.758Z,10.20
2019-03-17T01:38:12.178Z,14.65
2019-03-17T01:40:40.622Z,13.55
2019-03-17T01:43:09.041Z,11.10
2019-03-17T01:45:37.496Z,12.30
2019-03-17T01:48:05.907Z,13.20
2019-03-17T01:50:34.413Z,10.82
2019-03-17T01:53:02.829Z,16.40
2019-03-17T01:55:31.274Z,11.50
2019-03-17T01:57:59.707Z,13.28
2019-03-17T02:00:28.216Z,7.80
2019-03-17T02:02:56.643Z,14.38
2019-03-17T02:05:25.080Z,11.93
2019-03-17T02:07:53.498Z,9.30
2019-03-17T02:10:22.004Z,9.73
2019-03-17T02:12:50.434Z,12.60
2019-03-17T02:15:18.895Z,9.00
2019-03-17T02:17:47.339Z,11.20
2019-03-17T02:20:15.784Z,11.50
2019-03-17T02:22:44.218Z,7.67
2019-03-17T02:25:12.705Z,10.72
2019-03-17T02:27:41.145Z,9.05
2019-03-17T02:30:11.921Z,7.80
2019-03-17T02:32:40.362Z,10.45
2019-03-17T02:35:08.842Z,10.75
2019-03-17T02:37:37.291Z,11.78
2019-03-17T02:40:06.648Z,14.85
2019-03-17T02:42:35.092Z,10.48
2019-03-17T02:45:04.451Z,7.65
2019-03-17T02:47:32.896Z,9.83
2019-03-17T02:50:01.317Z,7.47
2019-03-17T02:52:29.753Z,8.93
2019-03-17T02:54:58.178Z,12.95
2019-03-17T02:57:26.626Z,12.13
2019-03-17T02:59:55.226Z,14.13
2019-03-17T03:02:23.711Z,10.10
2019-03-17T03:04:52.173Z,7.60
2019-03-17T03:07:20.753Z,13.93
2019-03-17T03:09:49.173Z,7.97
2019-03-17T03:12:17.610Z,11.22
2019-03-17T03:14:46.029Z,11.15
2019-03-17T03:17:14.476Z,8.23
2019-03-17T03:19:42.904Z,9.70
2019-03-17T03:22:11.342Z,14.33
2019-03-17T03:24:39.759Z,10.60
2019-03-17T03:27:08.202Z,9.93
2019-03-17T03:29:36.662Z,11.40
2019-03-17T03:32:05.083Z,15.25
2019-03-17T03:34:33.584Z,11.20
2019-03-17T03:37:02.013Z,11.33
2019-03-17T03:39:30.468Z,11.85
2019-03-17T03:41:58.883Z,8.63
2019-03-17T03:44:27.332Z,11.48
2019-03-17T03:46:55.749Z,12.73
2019-03-17T03:49:24.229Z,10.85
2019-03-17T03:51:52.794Z,11.50
2019-03-17T03:54:21.227Z,8.63
2019-03-17T03:56:49.643Z,9.03
2019-03-17T03:59:18.264Z,9.40
2019-03-17T04:01:46.765Z,5.87
2019-03-17T04:04:15.180Z,7.35
2019-03-17T04:06:43.618Z,14.83
2019-03-17T04:09:12.060Z,7.67
2019-03-17T04:11:40.508Z,7.08
2019-03-17T04:14:08.918Z,10.93
2019-03-17T04:16:37.358Z,8.90
2019-03-17T04:19:05.778Z,7.78
2019-03-17T04:21:34.223Z,7.83
2019-03-17T04:24:02.660Z,7.35
2019-03-17T04:26:31.103Z,10.32
2019-03-17T04:28:59.568Z,9.33
2019-03-17T04:31:28.008Z,6.25
2019-03-17T04:33:56.434Z,9.53
2019-03-17T04:36:24.876Z,5.67
2019-03-17T04:38:53.292Z,5.83
2019-03-17T04:41:21.751Z,7.40
2019-03-17T04:43:50.164Z,6.28
2019-03-17T04:46:18.599Z,5.15
2019-03-17T04:48:47.137Z,7.37
2019-03-17T04:51:15.731Z,6.55
2019-03-17T04:53:44.158Z,8.55
2019-03-17T04:56:12.603Z,4.95
2019-03-17T04:58:41.036Z,7.42
2019-03-17T05:01:09.471Z,5.08
2019-03-17T05:03:37.899Z,5.28
2019-03-17T05:06:06.315Z,7.25
2019-03-17T05:08:34.778Z,4.87
2019-03-17T05:11:03.221Z,9.28
2019-03-17T05:13:31.651Z,4.35
2019-03-17T05:16:00.070Z,7.65
2019-03-17T05:18:28.593Z,9.23
2019-03-17T05:20:57.016Z,9.75
2019-03-17T05:23:25.480Z,6.35
2019-03-17T05:25:53.897Z,10.98
2019-03-17T05:28:23.309Z,5.20
2019-03-17T05:30:51.826Z,9.93
2019-03-17T05:33:20.280Z,9.10
2019-03-17T05:35:48.705Z,7.75
2019-03-17T05:38:17.145Z,9.33
2019-03-17T05:40:45.569Z,16.10
2019-03-17T05:43:14.011Z,10.75
2019-03-17T05:45:42.426Z,8.75
2019-03-17T05:48:10.878Z,6.33
2019-03-17T05:50:39.291Z,7.47
2019-03-17T05:53:07.717Z,8.65
2019-03-17T05:55:36.163Z,6.80
2019-03-17T05:58:04.591Z,10.18
2019-03-17T06:00:33.029Z,7.22
2019-03-17T06:03:01.453Z,12.03
2019-03-17T06:05:29.899Z,11.85
2019-03-17T06:07:58.428Z,9.83
2019-03-17T06:10:27.888Z,13.65
2019-03-17T06:12:56.758Z,9.05
2019-03-17T06:15:25.203Z,9.33
2019-03-17T06:17:53.614Z,9.00
2019-03-17T06:20:22.058Z,11.75
2019-03-17T06:22:50.483Z,12.18
2019-03-17T06:25:18.960Z,9.73
2019-03-17T06:27:47.378Z,13.03
2019-03-17T06:30:15.883Z,7.28
2019-03-17T06:32:44.302Z,8.50
2019-03-17T06:35:12.742Z,9.20
2019-03-17T06:37:41.162Z,8.00
2019-03-17T06:40:12.599Z,8.88
2019-03-17T06:42:41.111Z,10.32
2019-03-17T06:45:10.889Z,9.60
2019-03-17T06:47:39.323Z,7.50
2019-03-17T06:50:13.010Z,9.35
2019-03-17T06:52:41.451Z,8.15
2019-03-17T06:55:14.212Z,8.85
2019-03-17T06:57:42.655Z,13.03
2019-03-17T07:00:13.130Z,9.45
2019-03-17T07:02:41.633Z,8.58
2019-03-17T07:05:10.396Z,7.53
2019-03-17T07:07:44.103Z,9.50
2019-03-17T07:10:10.414Z,8.80
2019-03-17T07:12:38.879Z,10.75
2019-03-17T07:15:10.134Z,9.98
2019-03-17T07:17:38.924Z,7.78
2019-03-17T07:20:10.278Z,8.23
2019-03-17T07:22:38.706Z,9.15
2019-03-17T07:25:08.664Z,9.90
2019-03-17T07:27:37.115Z,8.45
2019-03-17T07:30:11.388Z,8.83
2019-03-17T07:32:39.814Z,7.87
2019-03-17T07:35:08.501Z,7.17
2019-03-17T07:37:37.709Z,7.80
2019-03-17T07:40:11.098Z,7.92
2019-03-17T07:42:39.573Z,14.05
2019-03-17T07:45:11.809Z,7.75
2019-03-17T07:47:40.396Z,4.37
2019-03-17T07:50:11.165Z,5.65
2019-03-17T07:52:39.586Z,6.12
2019-03-17T07:55:09.471Z,4.90
2019-03-17T07:57:37.886Z,2.95
2019-03-17T08:00:14.406Z,3.10
2019-03-17T08:02:42.905Z,3.45
2019-03-17T08:05:11.521Z,9.08
2019-03-17T08:07:39.940Z,8.05
2019-03-17T08:10:13.303Z,4.92
2019-03-17T08:12:41.763Z,2.70
2019-03-17T08:15:11.850Z,3.83
2019-03-17T08:17:40.313Z,4.72
2019-03-17T08:20:10.291Z,2.97
2019-03-17T08:22:38.786Z,2.00
2019-03-17T08:25:08.996Z,2.43
2019-03-17T08:27:37.414Z,2.80
2019-03-17T08:30:18.226Z,3.83
2019-03-17T08:32:46.654Z,1.90
2019-03-17T08:35:15.094Z,1.23
2019-03-17T08:37:43.525Z,1.80
2019-03-17T08:40:14.588Z,1.70
2019-03-17T08:42:43.023Z,2.33
2019-03-17T08:45:13.001Z,1.97
2019-03-17T08:47:41.432Z,2.10
2019-03-17T08:50:11.624Z,2.10
2019-03-17T08:52:40.111Z,3.70
2019-03-17T08:55:09.574Z,3.70
2019-03-17T08:57:38.015Z,2.27
2019-03-17T09:00:09.563Z,2.30
2019-03-17T09:02:37.972Z,1.80
2019-03-17T09:05:06.931Z,3.50
2019-03-17T09:07:35.384Z,3.80
2019-03-17T09:10:06.110Z,1.97
2019-03-17T09:12:34.542Z,4.37
2019-03-17T09:15:02.954Z,2.17
2019-03-17T09:17:31.415Z,2.27
2019-03-17T09:19:59.822Z,5.70
2019-03-17T09:22:28.297Z,2.40
2019-03-17T09:24:56.702Z,1.70
2019-03-17T09:27:25.137Z,1.70
2019-03-17T09:29:53.554Z,2.47
2019-03-17T09:32:22.008Z,3.80
2019-03-17T09:34:50.462Z,3.67
2019-03-17T09:37:18.911Z,1.60
2019-03-17T09:39:47.340Z,2.20
2019-03-17T09:42:15.789Z,3.53
2019-03-17T09:44:44.212Z,1.97
2019-03-17T09:47:12.661Z,1.97
2019-03-17T09:49:41.108Z,1.87
2019-03-17T09:52:09.518Z,2.57
2019-03-17T09:54:38.022Z,2.83
2019-03-17T09:57:06.446Z,2.33
2019-03-17T09:59:34.904Z,2.57
2019-03-17T10:02:03.349Z,2.40
2019-03-17T10:04:31.863Z,3.27
2019-03-17T10:07:00.269Z,2.20
2019-03-17T10:09:28.723Z,4.30
2019-03-17T10:11:57.153Z,2.17
2019-03-17T10:14:25.634Z,2.20
2019-03-17T10:16:54.123Z,3.70
2019-03-17T10:19:22.573Z,2.60
2019-03-17T10:21:50.987Z,2.57
2019-03-17T10:24:19.483Z,3.20
2019-03-17T10:26:47.907Z,4.60
2019-03-17T10:29:16.356Z,2.67
2019-03-17T10:31:44.771Z,3.47
2019-03-17T10:34:13.226Z,1.87
2019-03-17T10:36:41.681Z,5.67
2019-03-17T10:39:12.602Z,3.57
2019-03-17T10:41:40.283Z,1.60
2019-03-17T10:44:08.727Z,3.77
2019-03-17T10:46:37.158Z,4.60
2019-03-17T10:49:05.613Z,3.60
2019-03-17T10:51:34.109Z,3.00
2019-03-17T10:54:02.531Z,4.50
2019-03-17T10:56:31.010Z,4.27
2019-03-17T10:58:59.490Z,3.47
2019-03-17T11:01:27.953Z,4.50
2019-03-17T11:03:56.362Z,6.60
2019-03-17T11:06:24.815Z,11.20
2019-03-17T11:08:53.276Z,3.63
2019-03-17T11:11:21.702Z,9.03
2019-03-17T11:13:50.141Z,4.53
2019-03-17T11:16:18.588Z,3.27
2019-03-17T11:18:47.122Z,4.97
2019-03-17T11:21:15.584Z,2.83
2019-03-17T11:23:44.065Z,6.93
2019-03-17T11:26:12.574Z,5.47
2019-03-17T11:28:41.031Z,4.83
2019-03-17T11:31:09.651Z,3.57
2019-03-17T11:33:38.074Z,3.43
2019-03-17T11:36:06.534Z,4.63
2019-03-17T11:38:36.331Z,6.47
2019-03-17T11:41:04.872Z,2.80
2019-03-17T11:43:33.315Z,5.43
2019-03-17T11:46:01.733Z,8.60
2019-03-17T11:48:30.222Z,5.90
2019-03-17T11:50:58.635Z,3.53
2019-03-17T11:53:27.125Z,4.93
2019-03-17T11:55:55.858Z,3.63
2019-03-17T11:58:24.317Z,10.63
2019-03-17T12:00:52.750Z,5.27
2019-03-17T12:03:21.271Z,9.53
2019-03-17T12:05:49.710Z,7.93
2019-03-17T12:08:18.140Z,3.97
2019-03-17T12:10:46.567Z,5.50
2019-03-17T12:13:15.014Z,6.20
2019-03-17T12:15:43.460Z,8.53
2019-03-17T12:18:11.907Z,8.30
2019-03-17T12:20:40.318Z,5.37
2019-03-17T12:23:08.760Z,3.30
2019-03-17T12:25:37.182Z,6.00
2019-03-17T12:28:05.618Z,5.50
2019-03-17T12:30:34.110Z,4.43
2019-03-17T12:33:02.526Z,10.23
2019-03-17T12:35:30.961Z,4.37
2019-03-17T12:37:59.384Z,7.33
2019-03-17T12:40:27.826Z,6.47
2019-03-17T12:42:56.251Z,8.30
2019-03-17T12:45:24.690Z,6.93
2019-03-17T12:47:54.831Z,3.47
2019-03-17T12:50:25.029Z,4.60
2019-03-17T12:52:53.534Z,5.63
2019-03-17T12:55:22.147Z,5.07
2019-03-17T12:57:50.660Z,8.00
2019-03-17T13:00:26.166Z,9.10
2019-03-17T13:02:54.599Z,5.90
2019-03-17T13:05:23.108Z,8.97
2019-03-17T13:07:51.586Z,8.30
2019-03-17T13:10:21.267Z,7.20
2019-03-17T13:12:50.036Z,6.67
2019-03-17T13:15:18.459Z,4.30
2019-03-17T13:17:46.970Z,7.50
2019-03-17T13:20:16.348Z,5.60
2019-03-17T13:22:44.927Z,3.17
2019-03-17T13:25:13.936Z,8.27
2019-03-17T13:27:42.446Z,6.20
2019-03-17T13:30:15.507Z,3.47
2019-03-17T13:32:44.098Z,6.30
2019-03-17T13:35:12.690Z,6.07
2019-03-17T13:37:41.389Z,4.70
2019-03-17T13:40:28.364Z,4.20
2019-03-17T13:42:48.059Z,6.50
2019-03-17T13:45:16.631Z,8.47
2019-03-17T13:47:45.085Z,3.00
2019-03-17T13:50:18.611Z,7.90
2019-03-17T13:52:47.083Z,6.53
2019-03-17T13:55:15.493Z,6.63
2019-03-17T13:57:47.059Z,5.40
2019-03-17T14:00:15.870Z,4.43
2019-03-17T14:02:44.309Z,6.17
2019-03-17T14:05:13.464Z,6.57
2019-03-17T14:07:41.882Z,4.80
2019-03-17T14:10:17.779Z,6.53
2019-03-17T14:12:46.238Z,3.90
2019-03-17T14:15:15.602Z,5.40
2019-03-17T14:17:44.121Z,4.90
2019-03-17T14:20:15.351Z,4.60
2019-03-17T14:22:44.211Z,14.10
2019-03-17T14:25:18.773Z,10.13
2019-03-17T14:27:47.263Z,6.07
2019-03-17T14:30:17.158Z,11.63
2019-03-17T14:32:45.602Z,3.30
2019-03-17T14:35:14.058Z,6.00
2019-03-17T14:37:42.524Z,9.47
2019-03-17T14:40:17.127Z,12.10
2019-03-17T14:42:48.725Z,5.00
2019-03-17T14:45:18.167Z,2.90
2019-03-17T14:47:46.646Z,2.87
2019-03-17T14:50:17.716Z,3.63
2019-03-17T14:52:46.485Z,3.13
2019-03-17T14:55:15.257Z,5.97
2019-03-17T14:57:43.675Z,2.40
2019-03-17T15:00:20.143Z,1.67
2019-03-17T15:02:48.723Z,1.13
2019-03-17T15:05:17.438Z,1.00
2019-03-17T15:07:45.939Z,1.00
2019-03-17T15:10:19.587Z,1.10
2019-03-17T15:12:48.305Z,0.90
2019-03-17T15:15:19.118Z,2.77
2019-03-17T15:17:48.158Z,1.22
2019-03-17T15:20:19.825Z,1.00
2019-03-17T15:22:48.387Z,1.10
2019-03-17T15:25:16.884Z,2.60
2019-03-17T15:27:45.325Z,0.90
2019-03-17T15:30:22.331Z,1.10
2019-03-17T15:32:51.144Z,2.65
2019-03-17T15:35:19.752Z,1.10
2019-03-17T15:37:48.326Z,1.65
2019-03-17T15:40:18.955Z,3.52
2019-03-17T15:42:47.406Z,3.77
2019-03-17T15:45:23.366Z,1.70
2019-03-17T15:47:52.030Z,3.20
2019-03-17T15:50:28.087Z,1.42
2019-03-17T15:52:56.670Z,0.90
2019-03-17T15:55:25.105Z,3.02
2019-03-17T15:57:53.542Z,1.37
2019-03-17T16:00:26.027Z,1.20
2019-03-17T16:02:53.321Z,1.45
2019-03-17T16:05:21.991Z,0.90
2019-03-17T16:07:50.506Z,0.90
2019-03-17T16:10:24.826Z,1.90
2019-03-17T16:12:53.334Z,2.22
2019-03-17T16:15:21.900Z,0.90
2019-03-17T16:17:50.327Z,1.12
2019-03-17T16:20:22.734Z,1.30
2019-03-17T16:22:51.171Z,2.75
2019-03-17T16:25:22.702Z,1.80
2019-03-17T16:27:51.237Z,1.52
2019-03-17T16:30:21.500Z,5.37
2019-03-17T16:32:50.082Z,3.00
2019-03-17T16:35:18.751Z,2.98
2019-03-17T16:37:48.822Z,1.85
2019-03-17T16:40:22.942Z,1.20
2019-03-17T16:42:53.767Z,4.62
2019-03-17T16:45:21.665Z,2.08
2019-03-17T16:47:50.167Z,1.90
2019-03-17T16:50:21.683Z,1.35
2019-03-17T16:52:50.204Z,4.20
2019-03-17T16:55:18.862Z,1.95
2019-03-17T16:57:47.351Z,2.65
2019-03-17T17:00:19.251Z,8.33
2019-03-17T17:02:48.679Z,1.98
2019-03-17T17:05:19.410Z,1.22
2019-03-17T17:07:47.821Z,1.47
2019-03-17T17:10:27.383Z,2.87
2019-03-17T17:12:56.214Z,1.52
2019-03-17T17:15:25.996Z,1.50
2019-03-17T17:17:54.428Z,1.52
2019-03-17T17:20:28.266Z,3.55
2019-03-17T17:22:56.686Z,1.45
2019-03-17T17:25:25.274Z,3.37
2019-03-17T17:27:53.695Z,4.97
2019-03-17T17:30:22.210Z,3.75
2019-03-17T17:32:50.734Z,3.52
2019-03-17T17:35:19.181Z,4.40
2019-03-17T17:37:47.649Z,4.17
2019-03-17T17:40:23.163Z,3.90
2019-03-17T17:42:51.649Z,2.87
2019-03-17T17:45:24.022Z,1.82
2019-03-17T17:47:52.538Z,4.20
2019-03-17T17:50:24.071Z,3.85
2019-03-17T17:52:52.515Z,5.12
2019-03-17T17:55:21.009Z,3.33
2019-03-17T17:57:49.447Z,6.85
2019-03-17T18:00:20.658Z,2.65
2019-03-17T18:02:49.269Z,3.05
2019-03-17T18:05:17.814Z,1.77
2019-03-17T18:07:46.419Z,4.42
2019-03-17T18:10:15.892Z,2.27
2019-03-17T18:12:44.559Z,3.37
2019-03-17T18:15:15.917Z,3.15
2019-03-17T18:17:44.471Z,4.87
2019-03-17T18:20:13.377Z,2.10
2019-03-17T18:22:41.846Z,2.00
2019-03-17T18:25:21.213Z,4.72
2019-03-17T18:27:49.851Z,4.53
2019-03-17T18:30:19.523Z,1.90
2019-03-17T18:32:48.119Z,2.12
2019-03-17T18:35:16.602Z,2.45
2019-03-17T18:37:45.094Z,3.55
2019-03-17T18:40:18.700Z,5.75
2019-03-17T18:42:47.146Z,2.20
2019-03-17T18:45:17.623Z,2.77
2019-03-17T18:47:46.851Z,2.12
2019-03-17T18:50:20.637Z,2.40
2019-03-17T18:52:45.882Z,2.83
2019-03-17T18:55:15.198Z,2.35
2019-03-17T18:57:43.763Z,2.10
2019-03-17T19:00:20.411Z,2.47
2019-03-17T19:02:48.840Z,1.45
2019-03-17T19:05:19.887Z,1.75
2019-03-17T19:07:48.186Z,3.62
2019-03-17T19:10:17.817Z,3.15
2019-03-17T19:12:46.540Z,2.70
2019-03-17T19:15:19.757Z,4.70
2019-03-17T19:17:48.348Z,3.50
2019-03-17T19:20:17.834Z,2.17
2019-03-17T19:22:46.366Z,1.75
2019-03-17T19:25:17.354Z,1.52
2019-03-17T19:27:45.790Z,3.77
2019-03-17T19:30:16.420Z,2.75
2019-03-17T19:32:45.272Z,1.62
2019-03-17T19:35:14.026Z,1.52
2019-03-17T19:37:42.619Z,1.75
2019-03-17T19:40:16.042Z,2.83
2019-03-17T19:42:44.470Z,2.22
2019-03-17T19:45:13.062Z,1.75
2019-03-17T19:47:42.168Z,2.10
2019-03-17T19:50:13.667Z,2.17
2019-03-17T19:52:42.179Z,3.45
2019-03-17T19:55:11.631Z,2.70
2019-03-17T19:57:40.088Z,2.85
2019-03-17T20:00:17.127Z,2.52
2019-03-17T20:02:47.439Z,2.35
2019-03-17T20:05:15.971Z,6.25
2019-03-17T20:07:44.483Z,3.20
2019-03-17T20:10:16.006Z,1.87
2019-03-17T20:12:44.462Z,4.65
2019-03-17T20:15:12.985Z,3.08
2019-03-17T20:17:41.503Z,3.52
2019-03-17T20:20:14.324Z,8.13
2019-03-17T20:22:42.923Z,3.30
2019-03-17T20:25:11.624Z,2.77
2019-03-17T20:27:40.216Z,3.08
2019-03-17T20:30:14.410Z,3.15
2019-03-17T20:32:42.963Z,2.95
2019-03-17T20:35:12.735Z,2.95
2019-03-17T20:37:41.454Z,4.60
2019-03-17T20:40:12.652Z,1.50
2019-03-17T20:42:41.179Z,2.87
2019-03-17T20:45:16.448Z,4.03
2019-03-17T20:47:44.929Z,1.95
2019-03-17T20:50:15.580Z,3.12
2019-03-17T20:52:44.065Z,5.42
2019-03-17T20:55:12.769Z,4.25
2019-03-17T20:57:41.360Z,12.80
2019-03-17T21:00:12.620Z,3.95
2019-03-17T21:02:41.106Z,2.40
2019-03-17T21:05:11.234Z,4.60
2019-03-17T21:07:40.451Z,4.15
2019-03-17T21:10:16.148Z,3.42
2019-03-17T21:12:44.718Z,3.15
2019-03-17T21:15:15.262Z,2.42
2019-03-17T21:17:43.670Z,4.90
2019-03-17T21:20:14.811Z,3.80
2019-03-17T21:22:43.240Z,2.98
2019-03-17T21:25:12.162Z,5.62
2019-03-17T21:27:40.670Z,2.77
2019-03-17T21:30:21.721Z,3.17
2019-03-17T21:32:50.231Z,3.22
2019-03-17T21:35:20.319Z,2.27
2019-03-17T21:37:49.015Z,4.20
2019-03-17T21:40:17.464Z,4.03
2019-03-17T21:42:45.960Z,4.25
2019-03-17T21:45:14.724Z,4.83
2019-03-17T21:47:43.158Z,1.95
2019-03-17T21:50:19.583Z,2.62
2019-03-17T21:52:48.068Z,1.90
2019-03-17T21:55:16.595Z,2.87
2019-03-17T21:57:45.091Z,4.45
2019-03-17T22:00:22.403Z,4.40
2019-03-17T22:02:51.088Z,5.05
2019-03-17T22:05:19.570Z,2.67
2019-03-17T22:07:50.867Z,3.62
2019-03-17T22:10:21.773Z,6.58
2019-03-17T22:12:50.214Z,4.10
2019-03-17T22:15:18.999Z,2.30
2019-03-17T22:17:47.444Z,3.70
2019-03-17T22:20:16.304Z,2.35
2019-03-17T22:22:44.743Z,2.10
2019-03-17T22:25:14.380Z,6.05
2019-03-17T22:27:42.912Z,3.02
2019-03-17T22:30:18.309Z,2.50
2019-03-17T22:32:46.818Z,3.67
2019-03-17T22:35:15.309Z,2.08
2019-03-17T22:37:43.810Z,3.25
2019-03-17T22:40:14.244Z,3.90
2019-03-17T22:42:42.709Z,7.10
2019-03-17T22:45:13.426Z,3.12
2019-03-17T22:47:41.884Z,1.90
2019-03-17T22:50:13.452Z,3.80
2019-03-17T22:52:41.930Z,3.45
2019-03-17T22:55:11.010Z,2.45
2019-03-17T22:57:39.507Z,2.95
2019-03-17T23:00:24.675Z,2.60
2019-03-17T23:02:53.380Z,2.70
2019-03-17T23:05:21.795Z,2.33
2019-03-17T23:07:50.238Z,3.17
2019-03-17T23:10:18.660Z,3.20
2019-03-17T23:12:47.285Z,3.90
2019-03-17T23:15:15.851Z,4.62
2019-03-17T23:17:44.355Z,7.60
2019-03-17T23:20:14.433Z,1.90
2019-03-17T23:22:42.979Z,6.15
2019-03-17T23:25:12.172Z,2.40
2019-03-17T23:27:40.670Z,1.60
2019-03-17T23:30:18.076Z,1.65
2019-03-17T23:32:49.247Z,1.50
2019-03-17T23:35:17.976Z,2.47
2019-03-17T23:37:48.038Z,3.10
2019-03-17T23:40:17.627Z,3.58
2019-03-17T23:42:46.108Z,4.62
2019-03-17T23:45:14.706Z,5.72
2019-03-17T23:47:43.270Z,4.92
2019-03-17T23:50:14.912Z,6.97
2019-03-17T23:52:43.483Z,5.53
2019-03-17T23:55:13.363Z,5.10
2019-03-17T23:57:41.961Z,7.92
